Schneifelwetter: Wetterstation Hallschlag, 537 m . NN
Wetterdaten: Mittwoch, 14.11.2012
Datum Zeit Temp. A. Feuchte A. Luftdruck Regen Wind Richtung Richtung Sonnenschein T Regen Taupunkt Windchill
14.11.2012 00:00 0,7 C 95 % 1027 hPa 0,0 l/m 0,0 km/h (0 Bft) N-NO 20 0 min 0 min -0,0 C 0,7 C
14.11.2012 00:16 0,3 C 96 % 1027 hPa 0,0 l/m 0,0 km/h (0 Bft) N-NO 20 0 min 0 min -0,3 C 0,3 C
14.11.2012 00:31 -0,2 C 95 % 1027 hPa 0,0 l/m 0,0 km/h (0 Bft) N-NO 20 0 min 0 min -0,9 C -0,2 C
14.11.2012 00:46 -0,6 C 96 % 1027 hPa 0,0 l/m 0,0 km/h (0 Bft) N-NO 20 0 min 0 min -1,2 C -0,6 C
14.11.2012 01:01 -1,0 C 96 % 1027 hPa 0,0 l/m 0,0 km/h (0 Bft) N-NO 20 0 min 0 min -1,6 C -1,0 C
14.11.2012 01:16 -1,4 C 96 % 1027 hPa 0,0 l/m 0,0 km/h (0 Bft) N-NO 20 0 min 0 min -2,0 C -1,4 C
14.11.2012 01:31 -1,3 C 96 % 1027 hPa 0,0 l/m 0,0 km/h (0 Bft) N-NO 20 0 min 0 min -1,9 C -1,3 C
14.11.2012 01:46 -1,5 C 96 % 1027 hPa 0,0 l/m 0,0 km/h (0 Bft) N-NO 20 0 min 0 min -2,1 C -1,5 C
14.11.2012 02:01 -1,7 C 96 % 1027 hPa 0,0 l/m 0,0 km/h (0 Bft) N-NO 20 0 min 0 min -2,3 C -1,7 C
14.11.2012 02:16 -2,0 C 96 % 1027 hPa 0,0 l/m 0,0 km/h (0 Bft) N-NO 20 0 min 0 min -2,6 C -2,0 C
14.11.2012 02:31 -2,1 C 96 % 1027 hPa 0,0 l/m 0,0 km/h (0 Bft) N-NO 20 0 min 0 min -2,6 C -2,1 C
14.11.2012 02:46 -2,2 C 96 % 1027 hPa 0,0 l/m 0,0 km/h (0 Bft) N-NO 20 0 min 0 min -2,7 C -2,2 C
14.11.2012 03:01 -2,3 C 96 % 1027 hPa 0,0 l/m 0,0 km/h (0 Bft) N-NO 20 0 min 0 min -2,8 C -2,3 C
14.11.2012 03:16 -2,6 C 96 % 1027 hPa 0,0 l/m 0,0 km/h (0 Bft) N-NO 20 0 min 0 min -3,1 C -2,6 C
14.11.2012 03:31 -2,8 C 96 % 1027 hPa 0,0 l/m 0,0 km/h (0 Bft) N-NO 20 0 min 0 min -3,3 C -2,8 C
14.11.2012 03:46 -3,1 C 96 % 1027 hPa 0,0 l/m 0,0 km/h (0 Bft) N-NO 20 0 min 0 min -3,6 C -3,1 C
14.11.2012 04:01 -3,2 C 96 % 1027 hPa 0,0 l/m 0,0 km/h (0 Bft) N-NO 20 0 min 0 min -3,7 C -3,2 C
14.11.2012 04:16 -3,4 C 96 % 1026 hPa 0,0 l/m 0,0 km/h (0 Bft) N-NO 20 0 min 0 min -3,9 C -3,4 C
14.11.2012 04:31 -3,5 C 96 % 1026 hPa 0,0 l/m 0,0 km/h (0 Bft) N-NO 20 0 min 0 min -4,0 C -3,5 C
14.11.2012 04:46 -3,4 C 96 % 1026 hPa 0,0 l/m 0,0 km/h (0 Bft) N-NO 20 0 min 0 min -3,9 C -3,4 C
14.11.2012 05:00 -3,6 C 96 % 1026 hPa 0,0 l/m 0,0 km/h (0 Bft) N-NO 20 0 min 0 min -4,1 C -3,6 C
14.11.2012 05:15 -3,7 C 96 % 1026 hPa 0,0 l/m 0,0 km/h (0 Bft) N-NO 20 0 min 0 min -4,2 C -3,7 C
14.11.2012 05:30 -3,8 C 97 % 1026 hPa 0,0 l/m 0,0 km/h (0 Bft) N-NO 20 0 min 0 min -4,2 C -3,8 C
14.11.2012 05:45 -3,8 C 97 % 1026 hPa 0,0 l/m 0,0 km/h (0 Bft) N-NO 20 0 min 0 min -4,2 C -3,8 C
14.11.2012 06:00 -3,9 C 97 % 1026 hPa 0,0 l/m 0,0 km/h (0 Bft) N-NO 20 0 min 0 min -4,3 C -3,9 C
14.11.2012 06:15 -3,7 C 97 % 1026 hPa 0,0 l/m 0,0 km/h (0 Bft) N-NO 20 0 min 0 min -4,1 C -3,7 C
14.11.2012 06:30 -3,5 C 97 % 1026 hPa 0,0 l/m 0,0 km/h (0 Bft) N-NO 20 0 min 0 min -3,9 C -3,5 C
14.11.2012 06:45 -3,8 C 97 % 1026 hPa 0,0 l/m 0,0 km/h (0 Bft) N-NO 20 0 min 0 min -4,2 C -3,8 C
14.11.2012 07:00 -4,0 C 97 % 1026 hPa 0,0 l/m 0,0 km/h (0 Bft) N-NO 20 0 min 0 min -4,4 C -4,0 C
14.11.2012 07:15 -4,1 C 97 % 1026 hPa 0,0 l/m 0,0 km/h (0 Bft) N-NO 20 0 min 0 min -4,5 C -4,1 C
14.11.2012 07:30 -3,9 C 97 % 1026 hPa 0,0 l/m 0,0 km/h (0 Bft) N-NO 20 0 min 0 min -4,3 C -3,9 C
14.11.2012 07:45 -4,0 C 97 % 1026 hPa 0,0 l/m 0,0 km/h (0 Bft) N-NO 20 0 min 0 min -4,4 C -4,0 C
14.11.2012 08:00 -4,1 C 97 % 1026 hPa 0,0 l/m 0,0 km/h (0 Bft) N-NO 20 0 min 0 min -4,5 C -4,1 C
14.11.2012 08:15 -4,1 C 97 % 1026 hPa 0,0 l/m 0,0 km/h (0 Bft) N-NO 20 0 min 0 min -4,5 C -4,1 C
14.11.2012 08:30 -3,4 C 98 % 1026 hPa 0,0 l/m 3,8 km/h (1 Bft) N22.5 10 0 min 0 min -3,7 C -3,4 C
14.11.2012 08:46 -2,4 C 98 % 1026 hPa 0,0 l/m 7,4 km/h (2 Bft) N22.5 10 0 min 0 min -2,7 C -3,5 C
14.11.2012 09:00 -2,0 C 98 % 1026 hPa 0,0 l/m 7,6 km/h (2 Bft) N22.5 5 0 min 0 min -2,3 C -3,3 C
14.11.2012 09:15 -1,5 C 98 % 1026 hPa 0,0 l/m 8,7 km/h (2 Bft) N22.5 360 0 min 0 min -1,8 C -3,9 C
14.11.2012 09:30 -0,8 C 98 % 1026 hPa 0,0 l/m 4,0 km/h (1 Bft) NW 325 0 min 0 min -1,1 C -0,8 C
14.11.2012 09:45 -0,4 C 98 % 1026 hPa 0,0 l/m 6,2 km/h (2 Bft) N22.5 360 0 min 0 min -0,7 C -0,4 C
14.11.2012 10:00 0,3 C 99 % 1026 hPa 0,0 l/m 7,2 km/h (2 Bft) N-NO 30 0 min 0 min 0,2 C -0,5 C
14.11.2012 10:16 0,9 C 99 % 1025 hPa 0,0 l/m 6,9 km/h (2 Bft) N-NO22.5 25 0 min 0 min 0,8 C 0,4 C
14.11.2012 10:30 1,5 C 98 % 1025 hPa 0,0 l/m 9,2 km/h (2 Bft) NO45 35 0 min 0 min 1,2 C -1,1 C
14.11.2012 10:45 2,1 C 98 % 1025 hPa 0,0 l/m 14,1 km/h (3 Bft) O-NO45 70 0 min 0 min 1,8 C -3,9 C
14.11.2012 11:00 2,5 C 98 % 1025 hPa 0,0 l/m 14,6 km/h (3 Bft) O-NO45 65 0 min 0 min 2,2 C -3,7 C
14.11.2012 11:15 3,0 C 98 % 1025 hPa 0,0 l/m 15,1 km/h (3 Bft) O-NO45 75 0 min 0 min 2,7 C -3,4 C
14.11.2012 11:30 3,5 C 98 % 1025 hPa 0,0 l/m 16,9 km/h (3 Bft) O-NO22.5 60 0 min 0 min 3,2 C -3,7 C
14.11.2012 11:46 4,1 C 97 % 1025 hPa 0,0 l/m 14,0 km/h (3 Bft) O-NO45 70 0 min 0 min 3,7 C -1,5 C
14.11.2012 11:45 4,1 C 97 % 1025 hPa 0,0 l/m 14,0 km/h (3 Bft) O-NO45 70 0 min 0 min 3,7 C -1,5 C
14.11.2012 12:00 4,5 C 97 % 1025 hPa 0,0 l/m 14,8 km/h (3 Bft) O-NO45 70 0 min 0 min 4,1 C -1,4 C
14.11.2012 12:15 4,9 C 96 % 1024 hPa 0,0 l/m 14,6 km/h (3 Bft) O-NO45 70 0 min 0 min 4,3 C -0,8 C
14.11.2012 12:30 5,6 C 94 % 1024 hPa 0,0 l/m 11,5 km/h (2 Bft) O-NO45 75 0 min 0 min 4,7 C 1,8 C
14.11.2012 12:46 5,8 C 93 % 1024 hPa 0,0 l/m 19,3 km/h (3 Bft) O22.5 80 0 min 0 min 4,8 C -1,9 C
14.11.2012 13:00 6,1 C 92 % 1024 hPa 0,0 l/m 11,6 km/h (2 Bft) O45 90 0 min 0 min 4,9 C 2,3 C
14.11.2012 13:15 6,5 C 89 % 1024 hPa 0,0 l/m 12,7 km/h (3 Bft) O-NO45 60 0 min 0 min 4,8 C 2,1 C
14.11.2012 13:30 6,6 C 88 % 1024 hPa 0,0 l/m 10,2 km/h (2 Bft) O45 85 0 min 0 min 4,8 C 3,7 C
14.11.2012 13:45 6,8 C 87 % 1023 hPa 0,0 l/m 12,1 km/h (2 Bft) O-NO45 60 0 min 0 min 4,8 C 2,8 C
14.11.2012 14:01 6,8 C 87 % 1023 hPa 0,0 l/m 12,0 km/h (2 Bft) O45 80 0 min 0 min 4,8 C 2,8 C
14.11.2012 14:15 6,9 C 87 % 1023 hPa 0,0 l/m 10,8 km/h (2 Bft) O-NO45 65 0 min 0 min 4,9 C 3,7 C
14.11.2012 14:30 6,9 C 86 % 1023 hPa 0,0 l/m 11,7 km/h (2 Bft) O-SO45 110 0 min 0 min 4,7 C 3,1 C
14.11.2012 14:45 7,0 C 85 % 1023 hPa 0,0 l/m 8,3 km/h (2 Bft) O-NO45 70 0 min 0 min 4,7 C 5,5 C
14.11.2012 15:00 6,8 C 84 % 1023 hPa 0,0 l/m 13,4 km/h (3 Bft) O45 85 0 min 0 min 4,3 C 2,1 C
14.11.2012 15:15 6,6 C 83 % 1023 hPa 0,0 l/m 13,4 km/h (3 Bft) O45 85 0 min 0 min 3,9 C 1,8 C
14.11.2012 15:31 6,2 C 83 % 1023 hPa 0,0 l/m 14,3 km/h (3 Bft) O-NO67.5 75 0 min 0 min 3,5 C 0,9 C
14.11.2012 15:45 5,7 C 84 % 1023 hPa 0,0 l/m 13,6 km/h (3 Bft) O-NO45 75 0 min 0 min 3,2 C 0,7 C
14.11.2012 16:00 5,2 C 85 % 1023 hPa 0,0 l/m 14,1 km/h (3 Bft) O-SO45 105 0 min 0 min 2,9 C -0,2 C
14.11.2012 16:15 4,7 C 85 % 1023 hPa 0,0 l/m 10,6 km/h (2 Bft) O45 80 0 min 0 min 2,4 C 1,3 C
14.11.2012 16:30 3,8 C 86 % 1023 hPa 0,0 l/m 13,6 km/h (3 Bft) O-NO45 75 0 min 0 min 1,7 C -1,6 C
14.11.2012 16:45 3,1 C 86 % 1023 hPa 0,0 l/m 11,1 km/h (2 Bft) O-NO22.5 75 0 min 0 min 1,0 C -0,8 C
14.11.2012 17:01 2,2 C 87 % 1023 hPa 0,0 l/m 9,5 km/h (2 Bft) O-NO 60 0 min 0 min 0,3 C -0,6 C
14.11.2012 17:15 1,5 C 88 % 1023 hPa 0,0 l/m 14,0 km/h (3 Bft) SO22.5 140 0 min 0 min -0,3 C -4,6 C
14.11.2012 17:30 1,2 C 90 % 1023 hPa 0,0 l/m 16,0 km/h (3 Bft) O45 90 0 min 0 min -0,3 C -6,1 C
14.11.2012 17:45 1,2 C 91 % 1023 hPa 0,0 l/m 11,4 km/h (2 Bft) O-SO45 115 0 min 0 min -0,1 C -3,2 C
14.11.2012 18:00 1,2 C 92 % 1023 hPa 0,0 l/m 10,6 km/h (2 Bft) O-SO22.5 110 0 min 0 min 0,0 C -2,6 C
14.11.2012 18:16 1,2 C 92 % 1023 hPa 0,0 l/m 10,1 km/h (2 Bft) SO22.5 145 0 min 0 min 0,0 C -2,2 C
14.11.2012 18:31 1,2 C 92 % 1023 hPa 0,0 l/m 13,7 km/h (3 Bft) SO22.5 145 0 min 0 min 0,0 C -4,7 C
14.11.2012 18:45 1,2 C 93 % 1022 hPa 0,0 l/m 13,9 km/h (3 Bft) O-SO45 120 0 min 0 min 0,2 C -4,9 C
14.11.2012 19:00 1,2 C 93 % 1023 hPa 0,0 l/m 13,4 km/h (3 Bft) O45 100 0 min 0 min 0,2 C -4,6 C
14.11.2012 19:15 1,2 C 93 % 1023 hPa 0,0 l/m 15,0 km/h (3 Bft) S-SO45 150 0 min 0 min 0,2 C -5,5 C
14.11.2012 19:30 1,0 C 94 % 1023 hPa 0,0 l/m 16,3 km/h (3 Bft) SO45 140 0 min 0 min 0,1 C -6,5 C
14.11.2012 19:46 0,9 C 94 % 1022 hPa 0,0 l/m 13,2 km/h (3 Bft) SO45 140 0 min 0 min 0,0 C -4,8 C
14.11.2012 20:00 0,9 C 94 % 1022 hPa 0,0 l/m 13,8 km/h (3 Bft) S-SO45 160 0 min 0 min 0,0 C -5,2 C
14.11.2012 20:15 0,9 C 94 % 1022 hPa 0,0 l/m 6,5 km/h (2 Bft) SO 140 0 min 0 min 0,0 C 0,8 C
14.11.2012 20:30 1,0 C 95 % 1022 hPa 0,0 l/m 12,0 km/h (2 Bft) S-SO22.5 155 0 min 0 min 0,3 C -3,8 C
14.11.2012 20:45 1,1 C 95 % 1022 hPa 0,0 l/m 9,3 km/h (2 Bft) SO22.5 140 0 min 0 min 0,4 C -1,7 C
14.11.2012 21:00 1,2 C 95 % 1022 hPa 0,0 l/m 5,7 km/h (1 Bft) SO22.5 130 0 min 0 min 0,5 C 1,2 C
14.11.2012 21:16 1,2 C 95 % 1022 hPa 0,0 l/m 14,1 km/h (3 Bft) S-SO45 160 0 min 0 min 0,5 C -5,0 C
14.11.2012 21:30 1,2 C 95 % 1022 hPa 0,0 l/m 14,8 km/h (3 Bft) S-SO22.5 165 0 min 0 min 0,5 C -5,4 C
14.11.2012 21:45 1,2 C 96 % 1022 hPa 0,0 l/m 11,3 km/h (2 Bft) S-SO22.5 150 0 min 0 min 0,6 C -3,1 C
14.11.2012 22:00 1,2 C 96 % 1022 hPa 0,0 l/m 10,3 km/h (2 Bft) S-SO22.5 155 0 min 0 min 0,6 C -2,4 C
14.11.2012 22:15 1,3 C 96 % 1022 hPa 0,0 l/m 5,8 km/h (2 Bft) S-SO22.5 160 0 min 0 min 0,7 C 1,3 C
14.11.2012 22:30 1,3 C 96 % 1022 hPa 0,0 l/m 12,3 km/h (3 Bft) S22.5 170 0 min 0 min 0,7 C -3,7 C
14.11.2012 22:46 1,3 C 96 % 1022 hPa 0,0 l/m 13,1 km/h (3 Bft) S-SO22.5 160 0 min 0 min 0,7 C -4,2 C
14.11.2012 23:00 1,3 C 96 % 1022 hPa 0,0 l/m 10,1 km/h (2 Bft) SO45 145 0 min 0 min 0,7 C -2,1 C
14.11.2012 23:15 1,4 C 96 % 1022 hPa 0,0 l/m 17,0 km/h (3 Bft) S22.5 185 0 min 0 min 0,8 C -6,4 C
14.11.2012 23:30 1,4 C 96 % 1022 hPa 0,0 l/m 7,1 km/h (2 Bft) S-SO22.5 155 0 min 0 min 0,8 C 0,7 C
14.11.2012 23:45 1,4 C 97 % 1021 hPa 0,0 l/m 11,6 km/h (2 Bft) S-SO22.5 155 0 min 0 min 1,0 C -3,1 C
_ Min-Zeit 07:15 15:15 23:45 - 00:00 - - - - 07:15 19:30
Minimum _ -4,1 C 83 % 1021 hPa - 0,0 km/h (0 Bft) - - - - -4,5 C -6,5 C
_ Max-Zeit 14:45 10:00 00:00 00:00 12:46 - - 00:00 00:00 13:00 14:45
Maximum _ 7,0 C 99 % 1027 hPa 0,0 l/m 19,3 km/h
O (3 Bft)
- - 0 min 0 min 4,9 C 5,5 C
Durchschnitt _ 0,7 C 94 % 1025 hPa #0,0 l/m 7,5 km/h (2 Bft) O-NO - #0 min. #0 min. -0,2 C -2,0 C